Погода Юрятинона 2 недели

Тверская область, Россия

20 мая-02 июня
  • 20мая
    Сегодня
    +8°
    +24°
    Практически безоблачно
    ВремяПогодаТемператураВлажностьДавлениеВетер, м/сВероятность осадков
    00:00Ясно и безоблачно+11°C69 %743 мм3.3 м/с2 %
    03:00Ясно и безоблачно+10°C66 %743 мм3.1 м/с2 %
    06:00Ясно и безоблачно+11°C74 %744 мм2.4 м/с2 %
    09:00Ясно и безоблачно+19°C65 %744 мм2.2 м/с2 %
    12:00Ясно и безоблачно+23°C39 %744 мм3.3 м/с2 %
    15:00Практически безоблачно+24°C41 %744 мм3.3 м/с2 %
    18:00Облачно с прояснениями+22°C62 %744 мм2.7 м/с21 %
    21:00Облачно с прояснениями+16°C82 %744 мм1.7 м/с2 %
  • 21мая
    Вторник
    +7°
    +22°
    Небольшая облачность
    ВремяПогодаТемператураВлажностьДавлениеВетер, м/сВероятность осадков
    00:00Облачно с прояснениями+11°C93 %745 мм1.8 м/с2 %
    03:00Ясно и безоблачно+8°C98 %745 мм1.9 м/с2 %
    06:00Небольшая облачность+11°C96 %746 мм1.9 м/с5 %
    09:00Практически безоблачно+18°C79 %747 мм0.9 м/с7 %
    12:00Пасмурно, сплошная облачность+21°C63 %747 мм1.1 м/с34 %
    15:00Небольшая облачность+22°C56 %746 мм2.3 м/с42 %
    18:00Практически безоблачно+21°C53 %746 мм2.0 м/с21 %
    21:00Ясно и безоблачно+17°C61 %747 мм2.9 м/с4 %
  • 22мая
    Среда
    +7°
    +22°
    Ясно и безоблачно
    ВремяПогодаТемператураВлажностьДавлениеВетер, м/сВероятность осадков
    00:00Ясно и безоблачно+11°C57 %747 мм2.7 м/с1 %
    03:00Ясно и безоблачно+8°C67 %747 мм2.0 м/с2 %
    06:00Ясно и безоблачно+9°C82 %748 мм2.4 м/с4 %
    09:00Ясно и безоблачно+16°C52 %749 мм3.2 м/с4 %
    12:00Ясно и безоблачно+20°C44 %749 мм3.3 м/с7 %
    15:00Ясно и безоблачно+22°C41 %749 мм3.1 м/с6 %
    18:00Ясно и безоблачно+21°C40 %748 мм2.9 м/с3 %
    21:00Ясно и безоблачно+16°C56 %749 мм3.2 м/с2 %
  • 23мая
    Четверг
    +5°
    +21°
    Небольшая облачность
    ВремяПогодаТемператураВлажностьДавлениеВетер, м/сВероятность осадков
    00:00Ясно и безоблачно+11°C60 %750 мм3.4 м/с2 %
    03:00Ясно и безоблачно+9°C66 %750 мм2.5 м/с2 %
    06:00Ясно и безоблачно+9°C72 %751 мм2.4 м/с2 %
    09:00Ясно и безоблачно+16°C57 %752 мм2.0 м/с2 %
    12:00Ясно и безоблачно+19°C39 %753 мм3.2 м/с2 %
    15:00Небольшая облачность+20°C36 %752 мм2.9 м/с2 %
    18:00Ясно и безоблачно+20°C39 %752 мм2.5 м/с2 %
    21:00Ясно и безоблачно+15°C56 %752 мм2.6 м/с2 %
  • 24мая
    Пятница
    +7°
    +21°
    Ясно и безоблачно
    ВремяПогодаТемператураВлажностьДавлениеВетер, м/сВероятность осадков
    00:00Ясно и безоблачно+10°C61 %753 мм2.8 м/с2 %
    03:00Ясно и безоблачно+7°C72 %753 мм2.1 м/с2 %
    06:00Ясно и безоблачно+8°C72 %754 мм1.8 м/с2 %
    09:00Ясно и безоблачно+16°C56 %755 мм1.6 м/с2 %
    12:00Ясно и безоблачно+19°C41 %755 мм2.9 м/с2 %
    15:00Ясно и безоблачно+20°C40 %754 мм3.3 м/с2 %
    18:00Ясно и безоблачно+20°C43 %752 мм3.0 м/с2 %
    21:00Ясно и безоблачно+15°C62 %752 мм2.6 м/с2 %
Мы используем cookies
Соглашаюсь